Time;durP1;ratioP1;P1;durP2;ratioP2;P2;SDS_P1;SDS_P2;PMS_P1;PMS_P2;Temp;Humidity;BMP_temperature;BMP_pressure;BME280_temperature;BME280_humidity;BME280_pressure;Samples;Min_cycle;Max_cycle;Signal;HPM_P1;HPM_P2
2022/05/13 05:02:58;;;;;;;9.52;5.32;;;17.10;99.90;;;;;;6149363;23;20289;-80
2022/05/13 05:05:24;;;;;;;8.18;5.38;;;17.20;99.90;;;;;;6165338;23;20009;-79
2022/05/13 05:07:50;;;;;;;11.90;6.32;;;17.20;99.90;;;;;;6192616;23;19997;-80
2022/05/13 05:10:18;;;;;;;10.57;6.30;;;17.20;99.90;;;;;;6141052;23;20012;-79
2022/05/13 05:12:46;;;;;;;7.68;5.60;;;17.20;99.90;;;;;;6142271;23;20115;-80
2022/05/13 05:15:12;;;;;;;9.88;6.18;;;17.20;99.90;;;;;;6164826;23;20123;-79
2022/05/13 05:17:39;;;;;;;9.82;5.93;;;17.30;99.90;;;;;;6192353;23;20048;-78
2022/05/13 05:20:05;;;;;;;8.27;5.15;;;17.30;99.90;;;;;;6116824;23;19997;-78
2022/05/13 05:22:31;;;;;;;9.00;5.47;;;17.20;99.90;;;;;;6141306;23;20044;-77
2022/05/13 05:24:57;;;;;;;11.30;5.82;;;17.20;99.90;;;;;;6166341;23;20001;-78
2022/05/13 05:27:23;;;;;;;9.18;5.35;;;17.20;99.90;;;;;;6141174;23;20226;-78
2022/05/13 05:29:52;;;;;;;9.55;5.57;;;17.20;99.90;;;;;;6141465;23;20028;-77
2022/05/13 05:35:52;;;;;;;9.85;5.15;;;17.40;99.90;;;;;;6192323;23;19922;-78
2022/05/13 05:38:18;;;;;;;9.77;5.55;;;17.40;99.90;;;;;;6165884;23;20101;-76
2022/05/13 05:41:03;;;;;;;8.18;4.35;;;17.40;99.90;;;;;;6192358;23;20008;-77
2022/05/13 05:43:34;;;;;;;6.93;4.60;;;17.50;99.90;;;;;;6191924;23;20306;-77
2022/05/13 05:45:59;;;;;;;8.52;4.60;;;17.60;99.90;;;;;;6191854;23;20016;-77
2022/05/13 05:48:29;;;;;;;7.18;4.43;;;17.70;99.90;;;;;;6191500;23;20330;-78
2022/05/13 05:50:58;;;;;;;9.70;4.82;;;17.80;99.90;;;;;;6198193;23;20067;-77
2022/05/13 05:59:17;;;;;;;9.23;3.63;;;18.00;99.90;;;;;;6191950;23;20001;-78
2022/05/13 06:17:54;;;;;;;8.02;3.80;;;18.10;99.90;;;;;;6100481;23;20078;-80
2022/05/13 06:20:26;;;;;;;8.57;3.50;;;18.00;99.90;;;;;;6180394;23;20002;-79
2022/05/13 06:22:52;;;;;;;7.60;3.58;;;18.10;99.90;;;;;;6192531;23;20167;-80
2022/05/13 06:25:19;;;;;;;6.38;3.38;;;18.20;99.90;;;;;;6192070;23;19997;-79
2022/05/13 06:27:46;;;;;;;8.13;3.42;;;18.20;99.90;;;;;;6193345;23;20004;-80
2022/05/13 06:30:16;;;;;;;14.32;3.95;;;18.20;99.90;;;;;;6166416;23;20015;-79
2022/05/13 06:32:45;;;;;;;6.80;3.08;;;18.30;99.90;;;;;;6193700;23;20002;-79
2022/05/13 06:35:17;;;;;;;5.53;3.10;;;18.50;99.90;;;;;;6193060;23;20005;-79
2022/05/13 06:37:45;;;;;;;7.43;3.40;;;18.70;99.90;;;;;;6192004;23;20194;-79
2022/05/13 06:40:11;;;;;;;5.15;3.33;;;18.90;99.90;;;;;;6192118;23;19993;-79
2022/05/13 06:42:37;;;;;;;6.47;3.45;;;19.20;99.90;;;;;;6192957;23;20308;-78
2022/05/13 06:45:04;;;;;;;7.82;3.53;;;19.40;99.90;;;;;;6141582;23;20005;-80
2022/05/13 06:47:53;;;;;;;6.88;3.10;;;19.60;99.90;;;;;;6192663;23;20196;-79
2022/05/13 06:50:19;;;;;;;8.93;3.55;;;19.90;99.90;;;;;;6193050;23;20005;-79
2022/05/13 06:52:46;;;;;;;9.13;2.88;;;20.00;99.90;;;;;;6193453;23;20005;-79
2022/05/13 06:55:18;;;;;;;5.60;2.88;;;20.00;99.90;;;;;;6166280;23;20005;-78
2022/05/13 06:57:44;;;;;;;8.32;3.50;;;20.00;99.90;;;;;;6191805;23;20045;-77
2022/05/13 07:00:10;;;;;;;8.10;3.08;;;19.90;99.90;;;;;;6165081;23;20048;-78
2022/05/13 07:02:40;;;;;;;9.75;2.85;;;19.70;99.90;;;;;;6165731;23;20162;-78
2022/05/13 07:52:44;;;;;;;8.50;2.97;;;19.30;99.90;;;;;;6213980;23;19919;-80
2022/05/13 08:16:38;;;;;;;7.53;2.20;;;20.70;94.60;;;;;;6144086;23;20060;-78
2022/05/13 08:19:05;;;;;;;9.35;3.05;;;20.70;94.20;;;;;;6140622;23;20433;-79
2022/05/13 08:21:31;;;;;;;7.18;2.17;;;21.30;93.20;;;;;;6164811;23;20009;-77
2022/05/13 08:23:57;;;;;;;8.68;2.97;;;21.80;92.30;;;;;;6191018;23;20285;-78
2022/05/13 08:26:25;;;;;;;15.05;3.83;;;21.80;91.70;;;;;;6190713;23;20020;-76
2022/05/13 08:28:50;;;;;;;12.33;2.50;;;21.90;90.10;;;;;;6165112;23;19993;-80
2022/05/13 08:31:16;;;;;;;6.28;2.28;;;21.70;89.20;;;;;;6162935;23;20059;-76
2022/05/13 08:34:05;;;;;;;7.68;2.47;;;21.70;89.00;;;;;;6164601;23;20011;-78
2022/05/13 08:36:32;;;;;;;10.07;2.35;;;21.40;89.80;;;;;;6190130;23;20001;-80
2022/05/13 08:39:01;;;;;;;8.93;2.05;;;21.40;90.20;;;;;;6165692;23;20127;-79
2022/05/13 08:41:51;;;;;;;8.40;2.55;;;21.50;90.10;;;;;;6190954;23;19997;-79
2022/05/13 08:44:18;;;;;;;8.70;2.13;;;21.40;87.90;;;;;;6155695;23;20119;-79
2022/05/13 08:47:01;;;;;;;6.22;1.88;;;21.10;90.00;;;;;;6189318;23;20063;-79
2022/05/13 08:49:54;;;;;;;9.60;2.33;;;21.40;89.70;;;;;;6190437;23;19993;-78
2022/05/13 08:55:33;;;;;;;4.93;1.80;;;21.20;88.20;;;;;;6191496;23;20290;-77
2022/05/13 08:58:03;;;;;;;6.65;1.73;;;21.20;86.00;;;;;;6191560;23;19997;-77
2022/05/13 09:00:49;;;;;;;11.20;2.40;;;21.10;86.10;;;;;;6188946;23;20009;-79
2022/05/13 09:03:18;;;;;;;6.88;1.98;;;21.00;86.40;;;;;;6190986;23;20001;-78
2022/05/13 09:06:00;;;;;;;7.10;2.42;;;20.90;86.70;;;;;;6191142;23;20259;-79
2022/05/13 09:08:26;;;;;;;5.90;1.73;;;20.90;86.10;;;;;;6164140;23;20001;-79
2022/05/13 09:11:23;;;;;;;9.82;1.80;;;21.00;84.80;;;;;;6164320;23;20051;-77
2022/05/13 09:14:31;;;;;;;5.90;1.60;;;21.30;84.50;;;;;;6191312;23;20071;-79
2022/05/13 09:17:31;;;;;;;5.43;1.63;;;21.30;84.30;;;;;;6190137;23;20108;-79
2022/05/13 09:20:12;;;;;;;6.22;2.08;;;21.40;84.90;;;;;;6140659;23;20306;-78
2022/05/13 09:22:58;;;;;;;7.60;1.85;;;21.20;85.40;;;;;;6139783;23;20032;-78
2022/05/13 09:26:01;;;;;;;7.28;1.80;;;21.30;85.10;;;;;;6139767;23;20298;-77
2022/05/13 09:28:28;;;;;;;7.10;1.90;;;21.20;83.20;;;;;;6139415;23;20287;-78
2022/05/13 09:31:04;;;;;;;6.85;1.92;;;21.40;84.20;;;;;;6190003;23;20085;-78
2022/05/13 09:33:40;;;;;;;9.07;1.70;;;22.10;83.10;;;;;;6163576;23;20020;-76
2022/05/13 09:36:23;;;;;;;6.00;1.60;;;21.90;81.80;;;;;;6104486;23;20028;-78
2022/05/13 09:39:16;;;;;;;7.13;1.95;;;21.80;80.80;;;;;;6129025;23;20030;-78
2022/05/13 09:41:41;;;;;;;6.43;1.60;;;21.60;81.50;;;;;;6092484;23;20025;-76
2022/05/13 09:44:23;;;;;;;8.02;2.00;;;21.60;82.60;;;;;;6104311;23;20013;-78
2022/05/13 09:47:10;;;;;;;7.07;2.22;;;21.60;82.20;;;;;;6127304;23;20259;-78
2022/05/13 09:49:41;;;;;;;5.88;1.58;;;21.40;82.60;;;;;;6128770;23;20092;-78
2022/05/13 09:52:09;;;;;;;8.50;2.05;;;21.80;82.30;;;;;;6129042;23;20013;-78
2022/05/13 09:54:40;;;;;;;9.15;1.85;;;21.90;80.20;;;;;;6103623;23;20010;-78
2022/05/13 09:57:29;;;;;;;5.93;1.63;;;21.70;81.70;;;;;;6127955;23;20048;-77
2022/05/13 10:00:00;;;;;;;5.82;1.48;;;21.80;81.20;;;;;;6128161;23;20089;-78
2022/05/13 10:02:30;;;;;;;6.10;1.70;;;21.90;79.60;;;;;;6127789;23;20097;-79
2022/05/13 10:05:17;;;;;;;5.35;1.33;;;21.70;80.10;;;;;;6119448;23;20005;-78
2022/05/13 10:08:15;;;;;;;5.40;1.42;;;21.40;79.50;;;;;;6178563;23;20295;-81
2022/05/13 10:15:11;;;;;;;4.47;1.48;;;21.50;80.70;;;;;;6165544;23;20056;-79
2022/05/13 10:17:47;;;;;;;8.20;1.88;;;21.80;79.70;;;;;;6097101;23;20030;-78
2022/05/13 10:20:48;;;;;;;4.47;1.38;;;22.10;77.90;;;;;;6166945;23;20005;-77
2022/05/13 10:23:27;;;;;;;4.95;1.48;;;22.20;77.40;;;;;;6142846;23;20002;-78
2022/05/13 10:26:11;;;;;;;6.50;1.85;;;22.20;78.70;;;;;;6166686;23;20048;-80
2022/05/13 10:28:45;;;;;;;7.70;1.80;;;22.30;79.90;;;;;;6111739;23;20036;-79
2022/05/13 10:31:16;;;;;;;4.93;1.80;;;22.30;77.20;;;;;;6135115;23;20056;-79
2022/05/13 10:34:01;;;;;;;5.78;1.50;;;22.20;78.00;;;;;;6135024;23;20266;-79
2022/05/13 10:36:34;;;;;;;7.80;2.10;;;22.30;78.40;;;;;;6159865;23;20005;-78
2022/05/13 10:39:15;;;;;;;7.13;1.60;;;21.90;78.50;;;;;;6135904;23;20013;-79
2022/05/13 10:42:18;;;;;;;8.75;2.08;;;21.60;79.40;;;;;;6160915;23;20005;-79
2022/05/13 10:45:15;;;;;;;8.40;2.00;;;21.40;80.60;;;;;;6112740;23;20020;-80
2022/05/13 10:47:46;;;;;;;11.15;2.67;;;21.60;80.90;;;;;;6109177;23;20211;-81
2022/05/13 10:50:23;;;;;;;5.72;1.60;;;21.40;80.50;;;;;;6158812;23;20021;-79
2022/05/13 10:53:06;;;;;;;8.32;1.80;;;21.30;81.00;;;;;;6159218;23;20045;-79
2022/05/13 10:55:59;;;;;;;5.70;1.70;;;21.40;80.80;;;;;;6165267;23;20001;-81
2022/05/13 10:58:52;;;;;;;5.35;1.80;;;21.60;82.00;;;;;;6164491;23;20004;-80
2022/05/13 11:01:48;;;;;;;8.07;1.90;;;21.60;81.50;;;;;;6150680;23;20145;-78
2022/05/13 11:04:35;;;;;;;6.60;1.90;;;21.90;80.80;;;;;;6191586;23;20001;-78
2022/05/13 11:07:24;;;;;;;7.40;1.98;;;22.10;81.50;;;;;;6164884;23;20008;-80
2022/05/13 11:10:08;;;;;;;6.50;2.08;;;22.00;80.40;;;;;;6140318;23;20009;-78
2022/05/13 11:13:05;;;;;;;5.18;2.10;;;22.00;82.40;;;;;;6191192;23;19997;-79
2022/05/13 11:15:58;;;;;;;7.28;2.35;;;22.10;82.40;;;;;;6124375;23;20290;-81
2022/05/13 11:18:45;;;;;;;8.07;2.15;;;22.20;82.20;;;;;;6140455;23;20040;-79
2022/05/13 11:21:33;;;;;;;11.33;2.33;;;22.40;81.90;;;;;;6139803;23;20024;-78
2022/05/13 11:27:38;;;;;;;6.18;1.80;;;23.20;79.80;;;;;;6164631;23;20341;-78
2022/05/13 11:30:13;;;;;;;7.28;2.50;;;24.00;78.70;;;;;;6139281;23;20000;-79
2022/05/13 11:33:01;;;;;;;6.50;2.00;;;24.70;75.90;;;;;;6140174;23;20212;-78
2022/05/13 11:35:33;;;;;;;9.57;2.17;;;24.60;75.60;;;;;;6164280;23;20036;-79
2022/05/13 11:38:07;;;;;;;7.13;2.00;;;24.70;74.80;;;;;;6191526;23;20067;-79
2022/05/13 11:40:49;;;;;;;10.10;2.10;;;24.80;76.40;;;;;;6164402;23;20047;-78
2022/05/13 11:43:33;;;;;;;6.50;1.90;;;25.20;73.70;;;;;;6191352;23;20005;-79
2022/05/13 11:46:05;;;;;;;6.40;2.13;;;24.60;74.60;;;;;;6139547;23;20085;-79
2022/05/13 11:48:40;;;;;;;5.40;2.28;;;24.20;74.70;;;;;;6165034;23;20056;-78
2022/05/13 11:51:10;;;;;;;5.38;1.88;;;24.00;75.00;;;;;;6140433;23;20380;-79
2022/05/13 11:53:44;;;;;;;5.57;1.70;;;23.70;76.00;;;;;;6103515;23;20284;-78
2022/05/13 11:56:31;;;;;;;4.30;2.03;;;23.70;76.00;;;;;;6128933;23;20017;-79
2022/05/13 11:59:31;;;;;;;4.70;2.05;;;23.90;77.10;;;;;;6081118;23;20002;-79
2022/05/13 12:02:05;;;;;;;6.80;1.88;;;25.10;75.10;;;;;;6127646;23;20322;-77
2022/05/13 12:04:34;;;;;;;3.50;1.63;;;25.60;73.30;;;;;;6128607;23;20069;-78
2022/05/13 12:07:25;;;;;;;5.15;1.90;;;25.70;70.90;;;;;;6128928;23;20006;-79
2022/05/13 12:09:56;;;;;;;6.57;1.50;;;26.30;71.60;;;;;;6128007;23;20076;-79
2022/05/13 12:12:43;;;;;;;4.60;1.90;;;27.20;70.60;;;;;;6079450;23;20085;-81
2022/05/13 12:15:46;;;;;;;5.95;1.63;;;28.60;67.00;;;;;;6127744;23;20072;-80
2022/05/13 12:18:28;;;;;;;6.97;1.90;;;28.60;65.10;;;;;;6128558;23;20073;-80
2022/05/13 12:21:16;;;;;;;5.75;1.52;;;29.70;63.30;;;;;;6128664;23;20093;-77
2022/05/13 12:23:51;;;;;;;4.38;1.90;;;31.00;62.00;;;;;;6136354;23;20012;-79
2022/05/13 12:26:44;;;;;;;4.82;1.75;;;30.20;62.00;;;;;;6165966;23;20302;-79
2022/05/13 12:30:12;;;;;;;3.92;1.30;;;29.30;63.10;;;;;;6170472;23;20016;-78
2022/05/13 12:33:20;;;;;;;4.93;1.45;;;29.90;61.50;;;;;;6190913;23;20071;-78
2022/05/13 12:39:17;;;;;;;2.80;1.42;;;28.60;62.20;;;;;;6192146;23;20031;-78
2022/05/13 12:41:43;;;;;;;4.78;1.77;;;27.60;64.00;;;;;;6166195;23;20005;-81
2022/05/13 12:44:14;;;;;;;3.28;1.67;;;26.40;66.40;;;;;;6192512;23;20199;-78
2022/05/13 12:47:12;;;;;;;4.95;1.73;;;25.70;67.80;;;;;;6140537;23;20055;-78
2022/05/13 12:50:26;;;;;;;4.90;1.67;;;25.70;67.40;;;;;;6165168;23;20290;-78
2022/05/13 12:52:51;;;;;;;6.18;1.80;;;25.90;68.20;;;;;;6166280;23;20452;-79
2022/05/13 12:55:24;;;;;;;5.60;1.80;;;27.20;66.60;;;;;;6141323;23;20016;-78
2022/05/13 12:58:01;;;;;;;5.63;2.15;;;27.50;64.30;;;;;;6165944;23;20008;-77
2022/05/13 13:00:39;;;;;;;4.30;1.35;;;28.10;64.50;;;;;;6190370;23;20005;-79
2022/05/13 13:03:12;;;;;;;5.03;1.70;;;28.00;64.60;;;;;;6192163;23;20278;-80
2022/05/13 13:05:41;;;;;;;5.82;1.80;;;30.10;62.90;;;;;;6140814;23;20039;-77
2022/05/13 13:08:18;;;;;;;5.65;1.60;;;31.10;60.30;;;;;;6165559;23;20271;-77
2022/05/13 13:11:04;;;;;;;3.53;1.30;;;32.80;57.60;;;;;;6140882;23;20032;-78
2022/05/13 13:13:47;;;;;;;4.13;1.65;;;34.30;56.60;;;;;;6140690;23;20005;-77
2022/05/13 13:17:00;;;;;;;6.20;1.88;;;33.30;57.60;;;;;;6195080;23;20013;-78
2022/05/13 13:19:29;;;;;;;5.85;1.75;;;35.20;54.50;;;;;;6181864;23;20000;-79
2022/05/13 13:22:06;;;;;;;3.47;1.60;;;33.80;55.60;;;;;;6195297;23;20011;-78
2022/05/13 13:24:38;;;;;;;3.13;1.20;;;34.30;55.70;;;;;;6170411;23;20000;-79
2022/05/13 13:27:14;;;;;;;3.40;1.52;;;33.50;56.20;;;;;;6195248;23;19997;-79
2022/05/13 13:29:42;;;;;;;4.13;1.30;;;33.70;55.80;;;;;;6221408;23;20019;-78
2022/05/13 13:32:26;;;;;;;;;;;34.00;54.20;;;;;;6195692;23;20426;-79
2022/05/13 13:34:52;;;;;;;3.97;1.20;;;33.50;54.60;;;;;;6195650;23;19900;-78
2022/05/13 13:37:21;;;;;;;4.25;1.30;;;;;;;;;;6223029;23;20005;-79
2022/05/13 13:39:46;;;;;;;5.60;1.38;;;36.20;51.30;;;;;;6223813;23;20001;-78
2022/05/13 13:42:15;;;;;;;5.95;1.20;;;34.90;52.30;;;;;;6172610;23;20005;-77
2022/05/13 13:44:43;;;;;;;5.28;1.60;;;34.40;53.00;;;;;;6223629;23;20286;-77
2022/05/13 13:47:25;;;;;;;4.15;1.33;;;35.10;52.20;;;;;;6197370;23;20096;-78
2022/05/13 13:49:51;;;;;;;5.63;1.40;;;35.60;51.20;;;;;;6224736;23;20004;-78
2022/05/13 13:52:21;;;;;;;4.57;1.30;;;34.80;50.60;;;;;;6197551;23;20004;-79
2022/05/13 13:54:54;;;;;;;4.20;1.17;;;32.30;53.40;;;;;;6224001;23;20001;-79
2022/05/13 13:57:46;;;;;;;5.63;1.38;;;31.70;55.20;;;;;;6224279;23;19997;-79
2022/05/13 14:00:19;;;;;;;3.50;1.30;;;33.90;52.50;;;;;;6224350;23;20299;-79
2022/05/13 14:02:51;;;;;;;4.00;1.50;;;36.20;50.50;;;;;;6198290;23;20005;-78
2022/05/13 14:05:20;;;;;;;3.70;0.98;;;38.00;48.10;;;;;;6225637;23;20000;-78
2022/05/13 14:07:50;;;;;;;2.78;1.17;;;38.50;47.60;;;;;;6224764;23;19993;-78
2022/05/13 14:10:21;;;;;;;2.58;0.95;;;38.30;46.70;;;;;;6198599;23;20004;-78
2022/05/13 14:12:48;;;;;;;5.47;1.27;;;37.00;46.80;;;;;;6224950;23;20008;-78
2022/05/13 14:15:21;;;;;;;2.90;0.90;;;37.80;48.80;;;;;;6198208;23;20031;-79
2022/05/13 14:17:55;;;;;;;6.45;1.00;;;38.80;46.70;;;;;;6224875;23;20016;-78
2022/05/13 14:20:30;;;;;;;3.42;1.00;;;40.20;45.60;;;;;;6224965;23;20016;-78
2022/05/13 14:22:59;;;;;;;2.35;0.90;;;39.50;44.60;;;;;;6198588;23;20012;-78
2022/05/13 14:25:41;;;;;;;4.30;1.33;;;39.20;45.10;;;;;;6225574;23;20031;-79
2022/05/13 14:28:16;;;;;;;4.32;1.42;;;38.80;44.30;;;;;;6224924;23;20041;-78
2022/05/13 14:30:49;;;;;;;3.78;1.02;;;39.00;44.40;;;;;;6223308;23;20021;-78
2022/05/13 14:33:16;;;;;;;2.22;0.85;;;39.90;44.50;;;;;;6224157;23;20000;-78
2022/05/13 14:35:43;;;;;;;;;;;40.00;42.90;;;;;;6198051;23;20234;-78
2022/05/13 14:38:12;;;;;;;3.13;0.95;;;41.00;43.10;;;;;;6198557;23;20196;-78
2022/05/13 14:40:46;;;;;;;3.17;0.85;;;41.10;43.10;;;;;;6197884;23;20009;-79
2022/05/13 14:43:23;;;;;;;3.03;0.80;;;40.30;43.60;;;;;;6225152;23;20050;-79
2022/05/13 14:45:49;;;;;;;3.17;0.98;;;40.60;44.10;;;;;;6196843;23;20027;-79
2022/05/13 14:48:24;;;;;;;2.33;0.80;;;41.30;43.60;;;;;;6224973;23;20020;-78
2022/05/13 14:51:00;;;;;;;2.88;0.73;;;41.80;42.50;;;;;;6197516;23;20301;-78
2022/05/13 14:53:28;;;;;;;2.17;0.80;;;40.80;42.40;;;;;;6198316;23;20009;-77
2022/05/13 14:56:00;;;;;;;3.47;0.90;;;40.50;42.30;;;;;;6224738;23;20007;-79
2022/05/13 14:58:35;;;;;;;2.53;0.93;;;40.60;42.50;;;;;;6198451;23;20011;-78
2022/05/13 15:01:19;;;;;;;3.88;1.20;;;39.50;42.90;;;;;;6197877;23;20249;-79
2022/05/13 15:03:48;;;;;;;4.13;0.90;;;40.20;44.00;;;;;;6197290;23;20035;-79
2022/05/13 15:06:33;;;;;;;3.80;1.00;;;40.40;42.10;;;;;;6224823;23;20007;-79
2022/05/13 15:09:30;;;;;;;2.78;0.85;;;40.50;42.20;;;;;;6224689;23;20000;-79
2022/05/13 15:12:02;;;;;;;3.53;1.10;;;40.40;42.40;;;;;;6224332;23;20020;-79
2022/05/13 15:14:30;;;;;;;3.05;0.77;;;39.80;43.20;;;;;;6223731;23;20001;-79
2022/05/13 15:16:57;;;;;;;2.85;0.90;;;40.20;43.10;;;;;;6222557;23;20314;-78
2022/05/13 15:19:25;;;;;;;3.50;1.02;;;40.30;42.40;;;;;;6197615;23;20005;-78
2022/05/13 15:21:56;;;;;;;2.33;0.73;;;40.20;42.30;;;;;;6195937;23;20181;-78
2022/05/13 15:24:23;;;;;;;6.15;1.50;;;39.80;42.30;;;;;;6197972;23;20005;-78
2022/05/13 15:26:49;;;;;;;4.20;0.87;;;39.90;42.90;;;;;;6197274;23;20289;-78
2022/05/13 15:29:16;;;;;;;3.42;0.90;;;40.50;42.50;;;;;;6224237;23;20376;-78
2022/05/13 15:31:42;;;;;;;4.03;0.95;;;41.40;42.70;;;;;;6222768;23;20021;-79
2022/05/13 15:34:08;;;;;;;3.55;0.88;;;41.90;41.40;;;;;;6223963;23;20199;-78
2022/05/13 15:36:35;;;;;;;4.47;1.17;;;41.70;41.70;;;;;;6223633;23;20051;-78
2022/05/13 15:39:03;;;;;;;2.83;0.82;;;41.20;42.00;;;;;;6223992;23;20056;-77
2022/05/13 15:41:29;;;;;;;2.88;1.20;;;40.50;42.50;;;;;;6224339;23;20001;-78
2022/05/13 15:43:55;;;;;;;3.30;0.93;;;40.10;42.40;;;;;;6198200;23;20003;-78
2022/05/13 15:46:28;;;;;;;4.40;1.05;;;38.70;42.70;;;;;;6196641;23;20012;-78
2022/05/13 15:48:54;;;;;;;3.38;0.95;;;37.00;43.60;;;;;;6223602;23;19997;-78
2022/05/13 15:54:05;;;;;;;4.20;0.80;;;38.30;43.30;;;;;;6223690;23;20164;-78
2022/05/13 15:56:37;;;;;;;4.82;1.08;;;38.50;42.90;;;;;;6222691;23;20188;-77
2022/05/13 15:59:04;;;;;;;2.95;0.93;;;38.90;42.60;;;;;;6197173;23;20001;-77
2022/05/13 16:01:33;;;;;;;3.40;0.97;;;39.10;42.50;;;;;;6196388;23;20013;-77
2022/05/13 16:03:59;;;;;;;3.13;0.80;;;39.60;43.00;;;;;;6196938;23;20071;-77
2022/05/13 16:06:25;;;;;;;4.63;0.80;;;40.60;41.80;;;;;;6197386;23;20239;-77
2022/05/13 16:08:51;;;;;;;3.80;1.00;;;40.40;41.90;;;;;;6196693;23;20165;-77
2022/05/13 16:11:23;;;;;;;3.38;0.90;;;40.40;41.90;;;;;;6223472;23;20015;-77
2022/05/13 16:13:53;;;;;;;1.83;0.80;;;40.30;42.00;;;;;;6171884;23;20004;-76
2022/05/13 16:16:35;;;;;;;2.83;0.70;;;39.80;42.10;;;;;;6223249;23;20024;-78
2022/05/13 16:19:02;;;;;;;4.88;1.00;;;39.20;42.20;;;;;;6223440;23;20293;-78
2022/05/13 16:21:32;;;;;;;4.07;1.10;;;38.10;42.40;;;;;;6197368;23;19996;-78
2022/05/13 16:23:59;;;;;;;5.95;1.30;;;37.80;43.10;;;;;;6197507;23;20270;-79
2022/05/13 16:26:28;;;;;;;3.35;0.90;;;38.00;43.00;;;;;;6203476;23;20024;-76
2022/05/13 16:28:55;;;;;;;3.33;0.80;;;37.50;43.20;;;;;;6212430;23;20004;-77
2022/05/13 16:31:21;;;;;;;2.88;0.63;;;37.10;43.30;;;;;;6236097;23;20021;-77
2022/05/13 16:33:47;;;;;;;4.07;0.70;;;37.10;43.20;;;;;;6226536;23;20000;-78
2022/05/13 16:36:13;;;;;;;4.78;0.80;;;37.00;43.00;;;;;;6224324;23;20279;-79
2022/05/13 16:38:39;;;;;;;4.32;0.90;;;35.80;43.60;;;;;;6223100;23;20001;-78
2022/05/13 16:41:05;;;;;;;3.13;0.90;;;33.60;44.40;;;;;;6223771;23;20005;-77
2022/05/13 16:43:32;;;;;;;4.60;0.95;;;31.50;46.50;;;;;;6223661;23;20001;-78
2022/05/13 16:45:57;;;;;;;3.63;0.90;;;29.70;48.10;;;;;;6195848;23;20047;-77
2022/05/13 16:48:23;;;;;;;5.40;1.25;;;28.60;49.80;;;;;;6197278;23;20001;-77
2022/05/13 16:50:49;;;;;;;4.60;1.08;;;27.70;50.40;;;;;;6223201;23;20028;-78
2022/05/13 16:53:15;;;;;;;5.68;1.13;;;27.20;51.40;;;;;;6197518;23;20052;-78
2022/05/13 16:55:46;;;;;;;5.35;0.98;;;26.80;51.90;;;;;;6222892;23;20051;-77
2022/05/13 16:58:12;;;;;;;3.33;0.90;;;26.40;50.60;;;;;;6196919;23;20012;-77
2022/05/13 17:00:38;;;;;;;2.50;0.90;;;25.60;51.80;;;;;;6222037;23;20036;-78
2022/05/13 17:03:04;;;;;;;4.03;1.20;;;25.40;52.50;;;;;;6171789;23;20004;-78
2022/05/13 17:05:33;;;;;;;5.25;1.10;;;25.10;53.40;;;;;;6197258;23;20047;-78
2022/05/13 17:08:00;;;;;;;3.33;1.38;;;25.10;54.30;;;;;;6196148;23;19996;-77
2022/05/13 17:16:12;;;;;;;5.30;0.80;;;25.30;52.50;;;;;;6195352;23;20193;-77
2022/05/13 17:21:25;;;;;;;2.25;0.70;;;25.80;52.40;;;;;;6224046;23;20000;-77
2022/05/13 17:23:51;;;;;;;5.18;1.10;;;26.00;52.40;;;;;;6222493;23;20004;-77
2022/05/13 17:26:17;;;;;;;2.70;0.80;;;26.50;52.40;;;;;;6223596;23;20024;-77
2022/05/13 17:28:44;;;;;;;4.82;1.17;;;27.40;51.20;;;;;;6195960;23;19992;-78
2022/05/13 17:31:11;;;;;;;3.45;0.70;;;28.60;49.20;;;;;;6195961;23;20024;-77
2022/05/13 17:33:37;;;;;;;2.75;0.77;;;29.60;47.90;;;;;;6196104;23;20004;-78
2022/05/13 17:36:04;;;;;;;2.47;0.80;;;30.30;47.30;;;;;;6223421;23;20005;-77
2022/05/13 17:38:31;;;;;;;2.80;0.73;;;31.00;46.50;;;;;;6223353;23;19996;-78
2022/05/13 17:40:57;;;;;;;3.20;1.00;;;31.30;46.20;;;;;;6196194;23;20001;-77
2022/05/13 17:43:23;;;;;;;3.38;0.75;;;31.80;46.10;;;;;;6223179;23;20056;-77
2022/05/13 17:45:50;;;;;;;2.60;0.73;;;32.40;45.60;;;;;;6195083;23;20012;-77
2022/05/13 17:48:19;;;;;;;5.82;0.95;;;32.50;45.40;;;;;;6223394;23;20003;-78
2022/05/13 17:50:47;;;;;;;2.88;0.70;;;32.20;45.50;;;;;;6222546;23;20064;-77
2022/05/13 17:53:19;;;;;;;4.47;1.02;;;32.20;45.60;;;;;;6223596;23;20008;-77
2022/05/13 17:55:45;;;;;;;2.95;1.15;;;32.30;45.30;;;;;;6222194;23;20031;-77
2022/05/13 17:58:10;;;;;;;4.45;0.80;;;32.10;45.30;;;;;;6171957;23;20001;-77
2022/05/13 18:00:37;;;;;;;5.35;1.05;;;31.40;45.60;;;;;;6223132;23;20012;-80
2022/05/13 18:03:05;;;;;;;3.57;1.10;;;30.20;46.60;;;;;;6172500;23;20005;-80
2022/05/13 18:05:31;;;;;;;3.78;1.20;;;28.70;47.80;;;;;;6224298;23;20151;-79
2022/05/13 18:07:57;;;;;;;3.00;0.95;;;27.10;49.70;;;;;;6225717;23;20012;-78
2022/05/13 18:10:23;;;;;;;4.53;1.10;;;25.90;51.40;;;;;;6224192;23;20028;-78
2022/05/13 18:12:48;;;;;;;3.20;0.82;;;24.90;52.90;;;;;;6196293;23;20039;-78
2022/05/13 18:15:15;;;;;;;4.00;0.90;;;24.20;54.30;;;;;;6171421;23;20005;-78
2022/05/13 18:17:47;;;;;;;4.45;2.03;;;23.60;54.90;;;;;;6196306;23;20024;-78
2022/05/13 18:20:16;;;;;;;2.53;1.00;;;23.30;56.60;;;;;;6197058;23;20313;-78
2022/05/13 18:22:49;;;;;;;3.70;1.23;;;23.00;56.70;;;;;;6172087;23;20198;-78
2022/05/13 18:25:15;;;;;;;2.83;0.93;;;22.80;57.20;;;;;;6225383;23;20289;-78
2022/05/13 18:27:43;;;;;;;6.95;1.20;;;22.50;57.30;;;;;;6198656;23;20015;-78
2022/05/13 18:30:09;;;;;;;;;;;22.40;58.10;;;;;;6198642;23;20009;-79
2022/05/13 18:32:36;;;;;;;6.10;1.40;;;22.20;57.90;;;;;;6225372;23;20074;-80
2022/05/13 18:35:05;;;;;;;4.07;1.20;;;22.00;59.10;;;;;;6224769;23;20000;-76
2022/05/13 18:37:31;;;;;;;5.13;1.13;;;21.90;59.50;;;;;;6173661;23;20238;-76
2022/05/13 18:48:50;;;;;;;4.55;1.20;;;21.40;61.30;;;;;;6225450;23;20283;-79
2022/05/13 18:51:22;;;;;;;5.95;1.35;;;21.30;61.50;;;;;;6159863;23;20005;-79
2022/05/13 18:54:06;;;;;;;4.75;1.60;;;21.10;61.00;;;;;;6198098;23;20000;-82
2022/05/13 18:56:38;;;;;;;3.95;1.60;;;21.00;62.20;;;;;;6224852;23;20000;-81
2022/05/13 19:10:12;;;;;;;4.00;1.38;;;20.50;63.50;;;;;;6237014;23;20011;-80
2022/05/13 19:12:44;;;;;;;4.80;1.20;;;20.30;64.50;;;;;;6235324;23;20069;-79
2022/05/13 19:15:10;;;;;;;4.90;1.17;;;20.20;64.50;;;;;;6232496;23;20133;-80
2022/05/13 19:21:16;;;;;;;10.40;1.40;;;20.00;64.60;;;;;;6180554;23;20008;-79
2022/05/13 19:23:42;;;;;;;6.63;1.30;;;19.80;65.30;;;;;;6223877;23;20012;-79
2022/05/13 19:26:12;;;;;;;5.28;1.50;;;19.60;65.50;;;;;;6171496;23;20032;-80
2022/05/13 19:28:39;;;;;;;4.80;1.33;;;19.50;66.90;;;;;;6223950;23;20062;-80
2022/05/13 19:31:11;;;;;;;5.70;1.17;;;19.40;66.10;;;;;;6222304;23;20202;-78
2022/05/13 19:33:38;;;;;;;3.05;1.25;;;19.40;66.90;;;;;;6197423;23;20111;-78
2022/05/13 19:36:31;;;;;;;4.93;1.33;;;19.40;67.20;;;;;;6195916;23;20241;-79
2022/05/13 19:39:02;;;;;;;6.13;1.02;;;19.30;66.70;;;;;;6196267;23;20390;-79
2022/05/13 19:41:35;;;;;;;3.85;1.10;;;19.10;67.20;;;;;;6197103;23;20121;-78
2022/05/13 19:44:04;;;;;;;4.55;1.10;;;18.90;67.60;;;;;;6162774;23;20020;-80
2022/05/13 19:46:32;;;;;;;6.93;1.40;;;18.80;68.30;;;;;;6222934;23;20072;-80
2022/05/13 19:49:01;;;;;;;6.38;1.52;;;18.70;68.60;;;;;;6196688;23;20016;-80
2022/05/13 19:55:02;;;;;;;4.32;1.88;;;18.60;69.50;;;;;;6223247;23;20019;-80
2022/05/13 19:57:28;;;;;;;7.80;2.38;;;18.60;70.40;;;;;;6196685;23;20003;-80
2022/05/13 19:59:54;;;;;;;5.20;2.08;;;18.40;70.80;;;;;;6196017;23;20217;-80
2022/05/13 20:02:20;;;;;;;4.53;2.00;;;18.30;71.60;;;;;;6222440;23;20031;-81
2022/05/13 20:11:02;;;;;;;8.52;2.53;;;18.00;74.70;;;;;;6196516;23;20030;-80
2022/05/13 20:14:06;;;;;;;6.13;1.80;;;17.90;75.00;;;;;;6223597;23;20001;-80
2022/05/13 20:17:00;;;;;;;6.82;2.15;;;17.90;74.80;;;;;;6222526;23;20210;-80
2022/05/13 20:19:26;;;;;;;6.07;2.45;;;17.80;74.60;;;;;;6192829;23;20017;-80
2022/05/13 20:25:01;;;;;;;6.32;1.73;;;17.80;74.00;;;;;;6192348;23;20061;-80
2022/05/13 20:27:27;;;;;;;4.53;1.77;;;17.90;73.50;;;;;;6192755;23;20005;-80
2022/05/13 20:29:53;;;;;;;6.63;1.73;;;17.90;73.40;;;;;;6166041;23;20009;-80
2022/05/13 20:32:24;;;;;;;4.70;2.00;;;17.90;73.60;;;;;;6167316;23;20006;-82
2022/05/13 20:34:53;;;;;;;6.40;2.00;;;17.80;73.90;;;;;;6167129;23;20067;-79
2022/05/13 20:37:19;;;;;;;5.57;1.48;;;17.70;74.30;;;;;;6178512;23;20251;-79
2022/05/13 20:39:57;;;;;;;5.75;1.98;;;17.50;74.60;;;;;;6192608;23;20001;-80
2022/05/13 20:42:23;;;;;;;6.45;1.85;;;17.40;75.00;;;;;;6192462;23;20023;-79
2022/05/13 20:44:56;;;;;;;7.45;1.92;;;17.30;75.40;;;;;;6141731;23;20179;-80
2022/05/13 20:47:22;;;;;;;3.50;1.55;;;17.20;75.60;;;;;;6191779;23;20120;-80
2022/05/13 20:49:49;;;;;;;8.30;1.80;;;17.10;76.00;;;;;;6166017;23;20005;-81
2022/05/13 20:52:15;;;;;;;4.75;2.15;;;17.10;76.20;;;;;;6192815;23;20297;-79
2022/05/13 20:54:42;;;;;;;6.78;2.05;;;17.00;76.50;;;;;;6192216;23;19997;-80
2022/05/13 20:57:15;;;;;;;3.92;2.00;;;16.90;77.60;;;;;;6165026;23;20375;-80
2022/05/13 20:59:41;;;;;;;7.05;2.75;;;16.80;77.30;;;;;;6166227;23;19997;-80